sensor_id;sensor_type;location;lat;lon;timestamp;temperature;humidity
71668;DHT22;59504;54.806;9.640;2023-08-30T00:00:16;12.30;66.10
71668;DHT22;59504;54.806;9.640;2023-08-30T00:02:19;12.30;66.10
71668;DHT22;59504;54.806;9.640;2023-08-30T00:04:41;12.30;66.10
71668;DHT22;59504;54.806;9.640;2023-08-30T00:07:02;12.30;66.20
71668;DHT22;59504;54.806;9.640;2023-08-30T00:09:22;12.30;66.50
71668;DHT22;59504;54.806;9.640;2023-08-30T00:11:43;12.20;66.60
71668;DHT22;59504;54.806;9.640;2023-08-30T00:14:04;12.20;66.70
71668;DHT22;59504;54.806;9.640;2023-08-30T00:16:25;12.20;66.80
71668;DHT22;59504;54.806;9.640;2023-08-30T00:18:46;12.30;67.00
71668;DHT22;59504;54.806;9.640;2023-08-30T00:21:07;12.20;67.00
71668;DHT22;59504;54.806;9.640;2023-08-30T00:23:27;12.20;67.10
71668;DHT22;59504;54.806;9.640;2023-08-30T00:25:48;12.20;67.20
71668;DHT22;59504;54.806;9.640;2023-08-30T00:28:09;12.20;67.20
71668;DHT22;59504;54.806;9.640;2023-08-30T00:30:30;12.10;67.20
71668;DHT22;59504;54.806;9.640;2023-08-30T00:32:50;12.10;67.20
71668;DHT22;59504;54.806;9.640;2023-08-30T00:35:11;12.10;67.20
71668;DHT22;59504;54.806;9.640;2023-08-30T00:37:31;12.10;67.40
71668;DHT22;59504;54.806;9.640;2023-08-30T00:39:52;12.20;67.50
71668;DHT22;59504;54.806;9.640;2023-08-30T00:42:12;12.10;67.50
71668;DHT22;59504;54.806;9.640;2023-08-30T00:44:33;12.10;67.50
71668;DHT22;59504;54.806;9.640;2023-08-30T00:46:54;12.00;67.30
71668;DHT22;59504;54.806;9.640;2023-08-30T00:49:14;12.00;66.80
71668;DHT22;59504;54.806;9.640;2023-08-30T00:51:35;12.10;67.20
71668;DHT22;59504;54.806;9.640;2023-08-30T00:53:56;12.10;67.20
71668;DHT22;59504;54.806;9.640;2023-08-30T00:56:17;12.00;67.30
71668;DHT22;59504;54.806;9.640;2023-08-30T00:58:37;12.00;67.30
71668;DHT22;59504;54.806;9.640;2023-08-30T01:00:58;12.00;67.30
71668;DHT22;59504;54.806;9.640;2023-08-30T01:03:19;12.00;67.50
71668;DHT22;59504;54.806;9.640;2023-08-30T01:05:42;12.00;67.50
71668;DHT22;59504;54.806;9.640;2023-08-30T01:08:02;12.00;67.70
71668;DHT22;59504;54.806;9.640;2023-08-30T01:10:05;12.00;67.90
71668;DHT22;59504;54.806;9.640;2023-08-30T01:14:13;12.00;68.20
71668;DHT22;59504;54.806;9.640;2023-08-30T01:16:15;12.00;68.30
71668;DHT22;59504;54.806;9.640;2023-08-30T01:18:17;12.00;68.40
71668;DHT22;59504;54.806;9.640;2023-08-30T01:20:18;12.00;68.40
71668;DHT22;59504;54.806;9.640;2023-08-30T01:24:34;12.10;68.60
71668;DHT22;59504;54.806;9.640;2023-08-30T01:29:04;12.10;68.80
71668;DHT22;59504;54.806;9.640;2023-08-30T01:31:26;12.10;68.80
71668;DHT22;59504;54.806;9.640;2023-08-30T01:33:47;12.20;68.70
71668;DHT22;59504;54.806;9.640;2023-08-30T01:36:08;12.20;68.60
71668;DHT22;59504;54.806;9.640;2023-08-30T01:38:29;12.30;68.80
71668;DHT22;59504;54.806;9.640;2023-08-30T01:40:51;12.20;68.60
71668;DHT22;59504;54.806;9.640;2023-08-30T01:43:12;12.30;68.60
71668;DHT22;59504;54.806;9.640;2023-08-30T01:45:34;12.40;68.70
71668;DHT22;59504;54.806;9.640;2023-08-30T01:47:56;12.30;68.70
71668;DHT22;59504;54.806;9.640;2023-08-30T01:50:17;12.40;68.70
71668;DHT22;59504;54.806;9.640;2023-08-30T01:52:38;12.40;68.90
71668;DHT22;59504;54.806;9.640;2023-08-30T01:54:59;12.50;68.80
71668;DHT22;59504;54.806;9.640;2023-08-30T01:57:20;12.40;69.00
71668;DHT22;59504;54.806;9.640;2023-08-30T01:59:41;12.50;69.30
71668;DHT22;59504;54.806;9.640;2023-08-30T02:01:41;12.50;69.30
71668;DHT22;59504;54.806;9.640;2023-08-30T02:03:45;12.50;69.40
71668;DHT22;59504;54.806;9.640;2023-08-30T02:06:00;12.50;69.50
71668;DHT22;59504;54.806;9.640;2023-08-30T02:08:13;12.50;69.60
71668;DHT22;59504;54.806;9.640;2023-08-30T02:10:35;12.60;69.70
71668;DHT22;59504;54.806;9.640;2023-08-30T02:12:56;12.70;69.90
71668;DHT22;59504;54.806;9.640;2023-08-30T02:15:18;12.70;70.00
71668;DHT22;59504;54.806;9.640;2023-08-30T02:17:39;12.70;70.10
71668;DHT22;59504;54.806;9.640;2023-08-30T02:19:59;12.70;70.20
71668;DHT22;59504;54.806;9.640;2023-08-30T02:22:20;12.80;70.30
71668;DHT22;59504;54.806;9.640;2023-08-30T02:24:41;12.80;70.30
71668;DHT22;59504;54.806;9.640;2023-08-30T02:27:01;12.90;70.50
71668;DHT22;59504;54.806;9.640;2023-08-30T02:29:22;12.90;70.60
71668;DHT22;59504;54.806;9.640;2023-08-30T02:31:22;12.90;70.50
71668;DHT22;59504;54.806;9.640;2023-08-30T02:33:23;13.00;70.70
71668;DHT22;59504;54.806;9.640;2023-08-30T02:35:24;13.00;70.70
71668;DHT22;59504;54.806;9.640;2023-08-30T02:37:24;13.10;70.80
71668;DHT22;59504;54.806;9.640;2023-08-30T02:39:25;13.10;70.70
71668;DHT22;59504;54.806;9.640;2023-08-30T02:41:26;13.00;70.70
71668;DHT22;59504;54.806;9.640;2023-08-30T02:43:27;13.10;70.80
71668;DHT22;59504;54.806;9.640;2023-08-30T02:45:28;13.10;70.80
71668;DHT22;59504;54.806;9.640;2023-08-30T02:47:28;13.20;70.90
71668;DHT22;59504;54.806;9.640;2023-08-30T02:49:29;13.10;70.80
71668;DHT22;59504;54.806;9.640;2023-08-30T02:51:30;13.20;70.90
71668;DHT22;59504;54.806;9.640;2023-08-30T02:53:50;13.10;70.90
71668;DHT22;59504;54.806;9.640;2023-08-30T02:55:51;13.20;71.10
71668;DHT22;59504;54.806;9.640;2023-08-30T02:58:15;13.20;71.60
71668;DHT22;59504;54.806;9.640;2023-08-30T03:00:39;13.20;71.30
71668;DHT22;59504;54.806;9.640;2023-08-30T03:02:39;13.20;71.40
71668;DHT22;59504;54.806;9.640;2023-08-30T03:05:00;13.30;71.30
71668;DHT22;59504;54.806;9.640;2023-08-30T03:07:21;13.30;71.10
71668;DHT22;59504;54.806;9.640;2023-08-30T03:09:41;13.30;71.40
71668;DHT22;59504;54.806;9.640;2023-08-30T03:12:02;13.40;71.50
71668;DHT22;59504;54.806;9.640;2023-08-30T03:14:23;13.40;71.40
71668;DHT22;59504;54.806;9.640;2023-08-30T03:16:43;13.40;71.50
71668;DHT22;59504;54.806;9.640;2023-08-30T03:19:07;13.40;71.50
71668;DHT22;59504;54.806;9.640;2023-08-30T03:21:27;13.40;71.50
71668;DHT22;59504;54.806;9.640;2023-08-30T03:23:48;13.40;71.50
71668;DHT22;59504;54.806;9.640;2023-08-30T03:26:09;13.50;72.10
71668;DHT22;59504;54.806;9.640;2023-08-30T03:28:30;13.40;71.30
71668;DHT22;59504;54.806;9.640;2023-08-30T03:30:50;13.50;71.50
71668;DHT22;59504;54.806;9.640;2023-08-30T03:33:11;13.60;71.50
71668;DHT22;59504;54.806;9.640;2023-08-30T03:35:33;13.40;71.10
71668;DHT22;59504;54.806;9.640;2023-08-30T03:37:54;13.50;71.20
71668;DHT22;59504;54.806;9.640;2023-08-30T03:39:55;13.40;71.20
71668;DHT22;59504;54.806;9.640;2023-08-30T03:41:55;13.50;71.40
71668;DHT22;59504;54.806;9.640;2023-08-30T03:43:56;13.50;71.30
71668;DHT22;59504;54.806;9.640;2023-08-30T03:46:17;13.50;71.30
71668;DHT22;59504;54.806;9.640;2023-08-30T03:48:37;13.50;71.20
71668;DHT22;59504;54.806;9.640;2023-08-30T03:50:58;13.50;71.20
71668;DHT22;59504;54.806;9.640;2023-08-30T03:53:19;13.40;71.10
71668;DHT22;59504;54.806;9.640;2023-08-30T03:55:40;13.50;71.30
71668;DHT22;59504;54.806;9.640;2023-08-30T03:58:00;13.40;71.20
71668;DHT22;59504;54.806;9.640;2023-08-30T04:00:21;13.40;71.30
71668;DHT22;59504;54.806;9.640;2023-08-30T04:02:42;13.50;71.30
71668;DHT22;59504;54.806;9.640;2023-08-30T04:05:03;13.40;71.40
71668;DHT22;59504;54.806;9.640;2023-08-30T04:07:28;13.40;71.30
71668;DHT22;59504;54.806;9.640;2023-08-30T04:09:49;13.40;71.40
71668;DHT22;59504;54.806;9.640;2023-08-30T04:11:50;13.50;72.20
71668;DHT22;59504;54.806;9.640;2023-08-30T04:13:52;13.50;71.60
71668;DHT22;59504;54.806;9.640;2023-08-30T04:15:53;13.40;71.50
71668;DHT22;59504;54.806;9.640;2023-08-30T04:17:54;13.40;71.50
71668;DHT22;59504;54.806;9.640;2023-08-30T04:19:54;13.50;71.40
71668;DHT22;59504;54.806;9.640;2023-08-30T04:21:55;13.50;71.50
71668;DHT22;59504;54.806;9.640;2023-08-30T04:23:55;13.50;71.40
71668;DHT22;59504;54.806;9.640;2023-08-30T04:25:58;13.50;71.50
71668;DHT22;59504;54.806;9.640;2023-08-30T04:28:19;13.50;71.60
71668;DHT22;59504;54.806;9.640;2023-08-30T04:30:40;13.60;71.70
71668;DHT22;59504;54.806;9.640;2023-08-30T04:33:00;13.60;71.90
71668;DHT22;59504;54.806;9.640;2023-08-30T04:35:23;13.50;71.80
71668;DHT22;59504;54.806;9.640;2023-08-30T04:37:43;13.60;71.90
71668;DHT22;59504;54.806;9.640;2023-08-30T04:40:07;13.60;71.70
71668;DHT22;59504;54.806;9.640;2023-08-30T04:42:30;13.50;71.50
71668;DHT22;59504;54.806;9.640;2023-08-30T04:44:51;13.60;71.90
71668;DHT22;59504;54.806;9.640;2023-08-30T04:47:12;13.60;72.60
71668;DHT22;59504;54.806;9.640;2023-08-30T04:49:33;13.60;73.20
71668;DHT22;59504;54.806;9.640;2023-08-30T04:51:53;13.60;72.40
71668;DHT22;59504;54.806;9.640;2023-08-30T04:54:14;13.70;72.20
71668;DHT22;59504;54.806;9.640;2023-08-30T04:56:34;13.70;72.40
71668;DHT22;59504;54.806;9.640;2023-08-30T04:58:55;13.80;72.90
71668;DHT22;59504;54.806;9.640;2023-08-30T05:01:17;13.70;72.60
71668;DHT22;59504;54.806;9.640;2023-08-30T05:03:18;13.80;73.00
71668;DHT22;59504;54.806;9.640;2023-08-30T05:05:18;13.70;73.00
71668;DHT22;59504;54.806;9.640;2023-08-30T05:07:19;13.80;72.90
71668;DHT22;59504;54.806;9.640;2023-08-30T05:09:39;13.80;73.50
71668;DHT22;59504;54.806;9.640;2023-08-30T05:12:00;13.80;73.30
71668;DHT22;59504;54.806;9.640;2023-08-30T05:14:21;13.80;73.20
71668;DHT22;59504;54.806;9.640;2023-08-30T05:16:45;13.80;72.90
71668;DHT22;59504;54.806;9.640;2023-08-30T05:19:05;13.90;73.00
71668;DHT22;59504;54.806;9.640;2023-08-30T05:21:26;13.80;72.90
71668;DHT22;59504;54.806;9.640;2023-08-30T05:23:46;13.90;73.00
71668;DHT22;59504;54.806;9.640;2023-08-30T05:26:09;13.90;73.10
71668;DHT22;59504;54.806;9.640;2023-08-30T05:28:30;13.90;73.10
71668;DHT22;59504;54.806;9.640;2023-08-30T05:30:50;14.00;73.20
71668;DHT22;59504;54.806;9.640;2023-08-30T05:32:51;14.10;73.30
71668;DHT22;59504;54.806;9.640;2023-08-30T05:34:51;14.00;73.20
71668;DHT22;59504;54.806;9.640;2023-08-30T05:36:52;14.00;73.20
71668;DHT22;59504;54.806;9.640;2023-08-30T05:38:55;14.10;73.30
71668;DHT22;59504;54.806;9.640;2023-08-30T05:41:15;14.00;73.10
71668;DHT22;59504;54.806;9.640;2023-08-30T05:43:36;14.10;73.20
71668;DHT22;59504;54.806;9.640;2023-08-30T05:45:56;14.20;73.30
71668;DHT22;59504;54.806;9.640;2023-08-30T05:48:22;14.20;73.30
71668;DHT22;59504;54.806;9.640;2023-08-30T05:50:42;14.20;73.30
71668;DHT22;59504;54.806;9.640;2023-08-30T05:53:03;14.20;73.30
71668;DHT22;59504;54.806;9.640;2023-08-30T05:55:24;14.20;73.20
71668;DHT22;59504;54.806;9.640;2023-08-30T05:57:44;14.30;73.30
71668;DHT22;59504;54.806;9.640;2023-08-30T06:00:05;14.30;73.40
71668;DHT22;59504;54.806;9.640;2023-08-30T06:02:09;14.40;73.50
71668;DHT22;59504;54.806;9.640;2023-08-30T06:04:10;14.50;73.50
71668;DHT22;59504;54.806;9.640;2023-08-30T06:06:11;14.50;73.50
71668;DHT22;59504;54.806;9.640;2023-08-30T06:08:11;14.50;73.50
71668;DHT22;59504;54.806;9.640;2023-08-30T06:10:12;14.50;73.50
71668;DHT22;59504;54.806;9.640;2023-08-30T06:12:13;14.50;73.50
71668;DHT22;59504;54.806;9.640;2023-08-30T06:14:14;14.60;73.60
71668;DHT22;59504;54.806;9.640;2023-08-30T06:16:14;14.60;73.60
71668;DHT22;59504;54.806;9.640;2023-08-30T06:18:15;14.60;74.00
71668;DHT22;59504;54.806;9.640;2023-08-30T06:20:19;14.70;73.90
71668;DHT22;59504;54.806;9.640;2023-08-30T06:22:40;14.70;73.80
71668;DHT22;59504;54.806;9.640;2023-08-30T06:25:03;14.70;73.90
71668;DHT22;59504;54.806;9.640;2023-08-30T06:27:24;14.80;73.90
71668;DHT22;59504;54.806;9.640;2023-08-30T06:29:45;14.80;73.90
71668;DHT22;59504;54.806;9.640;2023-08-30T06:32:06;14.90;73.90
71668;DHT22;59504;54.806;9.640;2023-08-30T06:34:27;14.90;73.90
71668;DHT22;59504;54.806;9.640;2023-08-30T06:36:47;15.00;74.00
71668;DHT22;59504;54.806;9.640;2023-08-30T06:39:08;15.00;74.20
71668;DHT22;59504;54.806;9.640;2023-08-30T06:41:29;15.10;74.20
71668;DHT22;59504;54.806;9.640;2023-08-30T06:43:49;15.20;74.50
71668;DHT22;59504;54.806;9.640;2023-08-30T06:46:10;15.20;74.30
71668;DHT22;59504;54.806;9.640;2023-08-30T06:48:10;15.30;74.40
71668;DHT22;59504;54.806;9.640;2023-08-30T06:50:11;15.30;74.20
71668;DHT22;59504;54.806;9.640;2023-08-30T06:52:11;15.30;74.00
71668;DHT22;59504;54.806;9.640;2023-08-30T06:54:12;15.40;73.90
71668;DHT22;59504;54.806;9.640;2023-08-30T06:56:13;15.40;73.80
71668;DHT22;59504;54.806;9.640;2023-08-30T06:58:33;15.50;73.80
71668;DHT22;59504;54.806;9.640;2023-08-30T07:00:37;15.50;73.50
71668;DHT22;59504;54.806;9.640;2023-08-30T07:02:57;15.60;73.20
71668;DHT22;59504;54.806;9.640;2023-08-30T07:05:18;15.60;73.00
71668;DHT22;59504;54.806;9.640;2023-08-30T07:07:39;15.70;73.20
71668;DHT22;59504;54.806;9.640;2023-08-30T07:09:59;15.70;73.30
71668;DHT22;59504;54.806;9.640;2023-08-30T07:12:20;15.90;73.60
71668;DHT22;59504;54.806;9.640;2023-08-30T07:14:21;15.90;73.20
71668;DHT22;59504;54.806;9.640;2023-08-30T07:16:22;15.90;73.00
71668;DHT22;59504;54.806;9.640;2023-08-30T07:18:22;16.00;72.90
71668;DHT22;59504;54.806;9.640;2023-08-30T07:20:43;16.00;72.90
71668;DHT22;59504;54.806;9.640;2023-08-30T07:22:44;16.10;73.00
71668;DHT22;59504;54.806;9.640;2023-08-30T07:25:05;16.10;73.00
71668;DHT22;59504;54.806;9.640;2023-08-30T07:27:26;16.20;73.10
71668;DHT22;59504;54.806;9.640;2023-08-30T07:29:48;16.20;73.20
71668;DHT22;59504;54.806;9.640;2023-08-30T07:32:09;16.30;73.10
71668;DHT22;59504;54.806;9.640;2023-08-30T07:34:30;16.40;73.20
71668;DHT22;59504;54.806;9.640;2023-08-30T07:36:50;16.40;73.10
71668;DHT22;59504;54.806;9.640;2023-08-30T07:39:10;16.40;73.10
71668;DHT22;59504;54.806;9.640;2023-08-30T07:41:33;16.50;73.00
71668;DHT22;59504;54.806;9.640;2023-08-30T07:43:34;16.60;72.90
71668;DHT22;59504;54.806;9.640;2023-08-30T07:45:34;16.70;72.80
71668;DHT22;59504;54.806;9.640;2023-08-30T07:47:35;16.70;72.80
71668;DHT22;59504;54.806;9.640;2023-08-30T07:49:35;16.80;72.70
71668;DHT22;59504;54.806;9.640;2023-08-30T07:51:36;16.80;72.50
71668;DHT22;59504;54.806;9.640;2023-08-30T07:53:37;16.80;72.60
71668;DHT22;59504;54.806;9.640;2023-08-30T07:55:37;16.90;72.60
71668;DHT22;59504;54.806;9.640;2023-08-30T07:57:40;16.90;72.60
71668;DHT22;59504;54.806;9.640;2023-08-30T08:00:00;17.00;72.60
71668;DHT22;59504;54.806;9.640;2023-08-30T08:02:21;17.10;72.50
71668;DHT22;59504;54.806;9.640;2023-08-30T08:04:41;17.10;72.40
71668;DHT22;59504;54.806;9.640;2023-08-30T08:07:03;17.10;72.30
71668;DHT22;59504;54.806;9.640;2023-08-30T08:09:25;17.20;72.10
71668;DHT22;59504;54.806;9.640;2023-08-30T08:11:45;17.30;72.00
71668;DHT22;59504;54.806;9.640;2023-08-30T08:14:06;17.40;72.00
71668;DHT22;59504;54.806;9.640;2023-08-30T08:16:27;17.40;72.00
71668;DHT22;59504;54.806;9.640;2023-08-30T08:18:47;17.40;71.70
71668;DHT22;59504;54.806;9.640;2023-08-30T08:21:08;17.50;71.90
71668;DHT22;59504;54.806;9.640;2023-08-30T08:23:29;17.50;71.70
71668;DHT22;59504;54.806;9.640;2023-08-30T08:25:49;17.60;71.70
71668;DHT22;59504;54.806;9.640;2023-08-30T08:28:09;17.60;71.60
71668;DHT22;59504;54.806;9.640;2023-08-30T08:30:30;17.70;71.50
71668;DHT22;59504;54.806;9.640;2023-08-30T08:32:31;17.70;71.40
71668;DHT22;59504;54.806;9.640;2023-08-30T08:34:31;17.80;71.40
71668;DHT22;59504;54.806;9.640;2023-08-30T08:36:32;17.80;71.20
71668;DHT22;59504;54.806;9.640;2023-08-30T08:38:33;17.90;71.20
71668;DHT22;59504;54.806;9.640;2023-08-30T08:40:54;17.90;71.10
71668;DHT22;59504;54.806;9.640;2023-08-30T08:43:21;18.00;71.10
71668;DHT22;59504;54.806;9.640;2023-08-30T08:45:42;18.00;70.90
71668;DHT22;59504;54.806;9.640;2023-08-30T08:48:03;18.10;70.80
71668;DHT22;59504;54.806;9.640;2023-08-30T08:50:24;18.10;70.80
71668;DHT22;59504;54.806;9.640;2023-08-30T08:52:45;18.20;70.80
71668;DHT22;59504;54.806;9.640;2023-08-30T08:55:06;18.30;70.70
71668;DHT22;59504;54.806;9.640;2023-08-30T08:57:07;18.30;70.60
71668;DHT22;59504;54.806;9.640;2023-08-30T08:59:07;18.40;70.60
71668;DHT22;59504;54.806;9.640;2023-08-30T09:01:28;18.40;70.40
71668;DHT22;59504;54.806;9.640;2023-08-30T09:03:50;18.50;70.30
71668;DHT22;59504;54.806;9.640;2023-08-30T09:05:50;18.50;70.10
71668;DHT22;59504;54.806;9.640;2023-08-30T09:08:11;18.60;70.10
71668;DHT22;59504;54.806;9.640;2023-08-30T09:10:33;18.60;70.00
71668;DHT22;59504;54.806;9.640;2023-08-30T09:12:55;18.70;69.80
71668;DHT22;59504;54.806;9.640;2023-08-30T09:15:15;18.70;69.60
71668;DHT22;59504;54.806;9.640;2023-08-30T09:17:39;18.70;70.00
71668;DHT22;59504;54.806;9.640;2023-08-30T09:20:10;18.80;69.30
71668;DHT22;59504;54.806;9.640;2023-08-30T09:22:37;18.80;68.90
71668;DHT22;59504;54.806;9.640;2023-08-30T09:24:58;18.90;68.80
71668;DHT22;59504;54.806;9.640;2023-08-30T09:27:18;18.90;68.80
71668;DHT22;59504;54.806;9.640;2023-08-30T09:29:39;19.00;68.80
71668;DHT22;59504;54.806;9.640;2023-08-30T09:32:04;19.00;68.60
71668;DHT22;59504;54.806;9.640;2023-08-30T09:34:24;19.10;68.80
71668;DHT22;59504;54.806;9.640;2023-08-30T09:36:48;19.20;68.90
71668;DHT22;59504;54.806;9.640;2023-08-30T09:39:11;19.20;68.80
71668;DHT22;59504;54.806;9.640;2023-08-30T09:41:32;19.30;68.80
71668;DHT22;59504;54.806;9.640;2023-08-30T09:43:53;19.40;68.10
71668;DHT22;59504;54.806;9.640;2023-08-30T09:46:14;19.40;67.60
71668;DHT22;59504;54.806;9.640;2023-08-30T09:48:35;19.50;67.90
71668;DHT22;59504;54.806;9.640;2023-08-30T09:50:58;19.60;67.60
71668;DHT22;59504;54.806;9.640;2023-08-30T09:53:19;19.60;67.70
71668;DHT22;59504;54.806;9.640;2023-08-30T09:55:20;19.70;67.20
71668;DHT22;59504;54.806;9.640;2023-08-30T09:57:21;19.70;65.10
71668;DHT22;59504;54.806;9.640;2023-08-30T09:59:22;19.80;64.30
71668;DHT22;59504;54.806;9.640;2023-08-30T10:01:23;19.80;63.40
71668;DHT22;59504;54.806;9.640;2023-08-30T10:03:25;19.80;64.20
71668;DHT22;59504;54.806;9.640;2023-08-30T10:05:26;19.90;65.10
71668;DHT22;59504;54.806;9.640;2023-08-30T10:07:27;19.90;64.60
71668;DHT22;59504;54.806;9.640;2023-08-30T10:09:28;19.90;62.00
71668;DHT22;59504;54.806;9.640;2023-08-30T10:11:33;20.00;62.00
71668;DHT22;59504;54.806;9.640;2023-08-30T10:13:54;20.10;62.30
71668;DHT22;59504;54.806;9.640;2023-08-30T10:16:15;20.10;63.40
71668;DHT22;59504;54.806;9.640;2023-08-30T10:18:39;20.10;63.40
71668;DHT22;59504;54.806;9.640;2023-08-30T10:20:59;20.10;63.70
71668;DHT22;59504;54.806;9.640;2023-08-30T10:23:22;20.20;60.50
71668;DHT22;59504;54.806;9.640;2023-08-30T10:25:43;20.20;60.50
71668;DHT22;59504;54.806;9.640;2023-08-30T10:27:46;20.30;62.10
71668;DHT22;59504;54.806;9.640;2023-08-30T10:29:47;20.30;62.70
71668;DHT22;59504;54.806;9.640;2023-08-30T10:31:49;20.30;62.30
71668;DHT22;59504;54.806;9.640;2023-08-30T10:33:50;20.40;60.60
71668;DHT22;59504;54.806;9.640;2023-08-30T10:35:51;20.40;60.70
71668;DHT22;59504;54.806;9.640;2023-08-30T10:38:12;20.40;60.90
71668;DHT22;59504;54.806;9.640;2023-08-30T10:40:33;20.50;59.40
71668;DHT22;59504;54.806;9.640;2023-08-30T10:43:03;20.50;59.80
71668;DHT22;59504;54.806;9.640;2023-08-30T10:45:24;20.50;59.90
71668;DHT22;59504;54.806;9.640;2023-08-30T10:47:44;20.60;60.30
71668;DHT22;59504;54.806;9.640;2023-08-30T10:50:06;20.60;61.00
71668;DHT22;59504;54.806;9.640;2023-08-30T10:52:27;20.60;60.80
71668;DHT22;59504;54.806;9.640;2023-08-30T10:54:36;20.70;61.20
71668;DHT22;59504;54.806;9.640;2023-08-30T10:56:56;20.70;61.20
71668;DHT22;59504;54.806;9.640;2023-08-30T10:59:19;20.80;61.50
71668;DHT22;59504;54.806;9.640;2023-08-30T11:01:20;20.90;61.40
71668;DHT22;59504;54.806;9.640;2023-08-30T11:03:41;20.90;59.60
71668;DHT22;59504;54.806;9.640;2023-08-30T11:05:47;20.90;58.80
71668;DHT22;59504;54.806;9.640;2023-08-30T11:07:50;20.90;56.50
71668;DHT22;59504;54.806;9.640;2023-08-30T11:10:11;21.00;57.20
71668;DHT22;59504;54.806;9.640;2023-08-30T11:12:32;21.00;57.10
71668;DHT22;59504;54.806;9.640;2023-08-30T11:14:41;21.00;56.60
71668;DHT22;59504;54.806;9.640;2023-08-30T11:17:02;21.00;55.80
71668;DHT22;59504;54.806;9.640;2023-08-30T11:19:22;21.00;57.30
71668;DHT22;59504;54.806;9.640;2023-08-30T11:21:44;21.10;58.00
71668;DHT22;59504;54.806;9.640;2023-08-30T11:24:05;21.10;58.20
71668;DHT22;59504;54.806;9.640;2023-08-30T11:26:26;21.10;58.20
71668;DHT22;59504;54.806;9.640;2023-08-30T11:28:47;21.10;56.60
71668;DHT22;59504;54.806;9.640;2023-08-30T11:31:08;21.20;57.30
71668;DHT22;59504;54.806;9.640;2023-08-30T11:33:29;21.20;57.30
71668;DHT22;59504;54.806;9.640;2023-08-30T11:35:51;21.30;57.70
71668;DHT22;59504;54.806;9.640;2023-08-30T11:38:12;21.30;57.60
71668;DHT22;59504;54.806;9.640;2023-08-30T11:40:33;21.30;55.80
71668;DHT22;59504;54.806;9.640;2023-08-30T11:42:54;21.40;57.00
71668;DHT22;59504;54.806;9.640;2023-08-30T11:45:15;21.40;53.80
71668;DHT22;59504;54.806;9.640;2023-08-30T11:47:35;21.50;55.50
71668;DHT22;59504;54.806;9.640;2023-08-30T11:49:57;21.40;53.50
71668;DHT22;59504;54.806;9.640;2023-08-30T11:52:18;21.40;56.00
71668;DHT22;59504;54.806;9.640;2023-08-30T11:54:38;21.50;55.90
71668;DHT22;59504;54.806;9.640;2023-08-30T11:56:59;21.40;55.20
71668;DHT22;59504;54.806;9.640;2023-08-30T11:58:59;21.40;54.70
71668;DHT22;59504;54.806;9.640;2023-08-30T12:01:00;21.40;55.10
71668;DHT22;59504;54.806;9.640;2023-08-30T12:03:01;21.30;54.00
71668;DHT22;59504;54.806;9.640;2023-08-30T12:05:02;21.30;52.60
71668;DHT22;59504;54.806;9.640;2023-08-30T12:07:02;21.30;53.80
71668;DHT22;59504;54.806;9.640;2023-08-30T12:09:04;21.20;51.70
71668;DHT22;59504;54.806;9.640;2023-08-30T12:11:19;21.20;51.70
71668;DHT22;59504;54.806;9.640;2023-08-30T12:15:32;21.00;52.80
71668;DHT22;59504;54.806;9.640;2023-08-30T12:17:54;21.00;53.40
71668;DHT22;59504;54.806;9.640;2023-08-30T12:20:15;21.00;51.80
71668;DHT22;59504;54.806;9.640;2023-08-30T12:22:38;20.90;52.30
71668;DHT22;59504;54.806;9.640;2023-08-30T12:24:59;20.90;52.50
71668;DHT22;59504;54.806;9.640;2023-08-30T12:27:20;20.80;53.10
71668;DHT22;59504;54.806;9.640;2023-08-30T12:29:40;20.80;53.50
71668;DHT22;59504;54.806;9.640;2023-08-30T12:32:01;20.70;52.20
71668;DHT22;59504;54.806;9.640;2023-08-30T12:34:22;20.70;53.30
71668;DHT22;59504;54.806;9.640;2023-08-30T12:36:23;20.70;53.40
71668;DHT22;59504;54.806;9.640;2023-08-30T12:38:24;20.60;52.60
71668;DHT22;59504;54.806;9.640;2023-08-30T12:40:25;20.60;53.20
71668;DHT22;59504;54.806;9.640;2023-08-30T12:42:45;20.70;53.20
71668;DHT22;59504;54.806;9.640;2023-08-30T12:45:06;20.70;53.60
71668;DHT22;59504;54.806;9.640;2023-08-30T12:47:28;20.70;53.30
71668;DHT22;59504;54.806;9.640;2023-08-30T12:49:52;20.70;53.60
71668;DHT22;59504;54.806;9.640;2023-08-30T12:52:13;20.80;54.30
71668;DHT22;59504;54.806;9.640;2023-08-30T12:54:14;20.80;53.10
71668;DHT22;59504;54.806;9.640;2023-08-30T12:56:15;20.80;51.20
71668;DHT22;59504;54.806;9.640;2023-08-30T12:58:15;20.80;51.40
71668;DHT22;59504;54.806;9.640;2023-08-30T13:00:36;20.80;51.00
71668;DHT22;59504;54.806;9.640;2023-08-30T13:02:56;20.90;51.20
71668;DHT22;59504;54.806;9.640;2023-08-30T13:04:57;20.90;51.90
71668;DHT22;59504;54.806;9.640;2023-08-30T13:07:18;20.90;52.70
71668;DHT22;59504;54.806;9.640;2023-08-30T13:09:39;20.90;53.00
71668;DHT22;59504;54.806;9.640;2023-08-30T13:12:00;21.00;52.70
71668;DHT22;59504;54.806;9.640;2023-08-30T13:14:14;21.00;53.10
71668;DHT22;59504;54.806;9.640;2023-08-30T13:16:35;21.10;53.30
71668;DHT22;59504;54.806;9.640;2023-08-30T13:18:56;21.10;53.70
71668;DHT22;59504;54.806;9.640;2023-08-30T13:21:16;21.20;53.20
71668;DHT22;59504;54.806;9.640;2023-08-30T13:23:37;21.20;53.30
71668;DHT22;59504;54.806;9.640;2023-08-30T13:25:57;21.30;51.60
71668;DHT22;59504;54.806;9.640;2023-08-30T13:28:18;21.30;50.80
71668;DHT22;59504;54.806;9.640;2023-08-30T13:30:43;21.30;49.90
71668;DHT22;59504;54.806;9.640;2023-08-30T13:33:04;21.30;49.70
71668;DHT22;59504;54.806;9.640;2023-08-30T13:35:24;21.40;51.60
71668;DHT22;59504;54.806;9.640;2023-08-30T13:37:45;21.40;50.50
71668;DHT22;59504;54.806;9.640;2023-08-30T13:40:06;21.50;51.40
71668;DHT22;59504;54.806;9.640;2023-08-30T13:42:26;21.50;52.20
71668;DHT22;59504;54.806;9.640;2023-08-30T13:44:49;21.50;52.40
71668;DHT22;59504;54.806;9.640;2023-08-30T13:47:10;21.50;53.00
71668;DHT22;59504;54.806;9.640;2023-08-30T13:49:13;21.50;52.60
71668;DHT22;59504;54.806;9.640;2023-08-30T13:51:14;21.50;52.50
71668;DHT22;59504;54.806;9.640;2023-08-30T13:53:34;21.50;51.80
71668;DHT22;59504;54.806;9.640;2023-08-30T13:55:55;21.60;49.80
71668;DHT22;59504;54.806;9.640;2023-08-30T13:58:16;21.60;50.80
71668;DHT22;59504;54.806;9.640;2023-08-30T14:00:36;21.50;50.00
71668;DHT22;59504;54.806;9.640;2023-08-30T14:02:57;21.50;50.50
71668;DHT22;59504;54.806;9.640;2023-08-30T14:05:17;21.40;49.90
71668;DHT22;59504;54.806;9.640;2023-08-30T14:07:38;21.40;48.50
71668;DHT22;59504;54.806;9.640;2023-08-30T14:09:59;21.40;50.40
71668;DHT22;59504;54.806;9.640;2023-08-30T14:12:19;21.30;50.00
71668;DHT22;59504;54.806;9.640;2023-08-30T14:14:20;21.30;49.10
71668;DHT22;59504;54.806;9.640;2023-08-30T14:16:21;21.20;49.50
71668;DHT22;59504;54.806;9.640;2023-08-30T14:18:21;21.20;49.10
71668;DHT22;59504;54.806;9.640;2023-08-30T14:20:22;21.10;50.10